sensor_id;sensor_type;location;lat;lon;timestamp;P1;durP1;ratioP1;P2;durP2;ratioP2
74926;SDS011;63488;48.092;-1.640;2024-02-15T00:00:32;3.92;;;2.17;;
74926;SDS011;63488;48.092;-1.640;2024-02-15T00:02:58;4.40;;;2.20;;
74926;SDS011;63488;48.092;-1.640;2024-02-15T00:05:24;2.75;;;1.90;;
74926;SDS011;63488;48.092;-1.640;2024-02-15T00:07:49;4.38;;;1.90;;
74926;SDS011;63488;48.092;-1.640;2024-02-15T00:10:14;3.45;;;2.03;;
74926;SDS011;63488;48.092;-1.640;2024-02-15T00:12:40;4.03;;;2.17;;
74926;SDS011;63488;48.092;-1.640;2024-02-15T00:15:05;4.75;;;1.98;;
74926;SDS011;63488;48.092;-1.640;2024-02-15T00:17:31;4.95;;;2.15;;
74926;SDS011;63488;48.092;-1.640;2024-02-15T00:19:57;3.95;;;2.10;;
74926;SDS011;63488;48.092;-1.640;2024-02-15T00:22:22;3.17;;;2.08;;
74926;SDS011;63488;48.092;-1.640;2024-02-15T00:24:48;4.97;;;2.30;;
74926;SDS011;63488;48.092;-1.640;2024-02-15T00:27:16;5.45;;;2.40;;
74926;SDS011;63488;48.092;-1.640;2024-02-15T00:29:41;5.03;;;2.40;;
74926;SDS011;63488;48.092;-1.640;2024-02-15T00:32:08;3.88;;;2.03;;
74926;SDS011;63488;48.092;-1.640;2024-02-15T00:34:33;7.18;;;2.58;;
74926;SDS011;63488;48.092;-1.640;2024-02-15T00:36:59;3.88;;;2.22;;
74926;SDS011;63488;48.092;-1.640;2024-02-15T00:39:24;7.85;;;2.50;;
74926;SDS011;63488;48.092;-1.640;2024-02-15T00:41:50;5.05;;;2.25;;
74926;SDS011;63488;48.092;-1.640;2024-02-15T00:44:15;3.50;;;2.30;;
74926;SDS011;63488;48.092;-1.640;2024-02-15T00:46:40;7.00;;;2.60;;
74926;SDS011;63488;48.092;-1.640;2024-02-15T00:49:06;4.00;;;2.53;;
74926;SDS011;63488;48.092;-1.640;2024-02-15T00:51:35;4.28;;;2.55;;
74926;SDS011;63488;48.092;-1.640;2024-02-15T00:54:01;3.70;;;2.70;;
74926;SDS011;63488;48.092;-1.640;2024-02-15T00:56:27;4.30;;;2.85;;
74926;SDS011;63488;48.092;-1.640;2024-02-15T00:58:54;3.75;;;2.60;;
74926;SDS011;63488;48.092;-1.640;2024-02-15T01:01:20;3.10;;;2.28;;
74926;SDS011;63488;48.092;-1.640;2024-02-15T01:03:45;5.45;;;2.85;;
74926;SDS011;63488;48.092;-1.640;2024-02-15T01:06:10;4.15;;;2.83;;
74926;SDS011;63488;48.092;-1.640;2024-02-15T01:08:35;4.78;;;2.88;;
74926;SDS011;63488;48.092;-1.640;2024-02-15T01:11:01;4.38;;;2.28;;
74926;SDS011;63488;48.092;-1.640;2024-02-15T01:13:27;4.40;;;2.80;;
74926;SDS011;63488;48.092;-1.640;2024-02-15T01:15:52;6.45;;;3.00;;
74926;SDS011;63488;48.092;-1.640;2024-02-15T01:18:18;5.35;;;2.58;;
74926;SDS011;63488;48.092;-1.640;2024-02-15T01:20:43;4.70;;;3.25;;
74926;SDS011;63488;48.092;-1.640;2024-02-15T01:23:10;3.92;;;2.85;;
74926;SDS011;63488;48.092;-1.640;2024-02-15T01:25:35;4.22;;;2.70;;
74926;SDS011;63488;48.092;-1.640;2024-02-15T01:28:00;5.25;;;2.85;;
74926;SDS011;63488;48.092;-1.640;2024-02-15T01:30:27;5.75;;;2.90;;
74926;SDS011;63488;48.092;-1.640;2024-02-15T01:32:53;7.38;;;3.20;;
74926;SDS011;63488;48.092;-1.640;2024-02-15T01:35:19;6.03;;;3.22;;
74926;SDS011;63488;48.092;-1.640;2024-02-15T01:37:44;5.05;;;2.72;;
74926;SDS011;63488;48.092;-1.640;2024-02-15T01:40:09;7.28;;;3.10;;
74926;SDS011;63488;48.092;-1.640;2024-02-15T01:42:37;7.75;;;3.50;;
74926;SDS011;63488;48.092;-1.640;2024-02-15T01:45:03;5.60;;;3.30;;
74926;SDS011;63488;48.092;-1.640;2024-02-15T01:47:29;6.75;;;3.28;;
74926;SDS011;63488;48.092;-1.640;2024-02-15T01:49:55;8.10;;;3.10;;
74926;SDS011;63488;48.092;-1.640;2024-02-15T01:52:21;5.25;;;3.40;;
74926;SDS011;63488;48.092;-1.640;2024-02-15T01:54:47;5.95;;;3.45;;
74926;SDS011;63488;48.092;-1.640;2024-02-15T01:57:13;6.20;;;3.35;;
74926;SDS011;63488;48.092;-1.640;2024-02-15T01:59:38;4.65;;;3.10;;
74926;SDS011;63488;48.092;-1.640;2024-02-15T02:02:04;4.10;;;3.20;;
74926;SDS011;63488;48.092;-1.640;2024-02-15T02:04:31;7.00;;;3.40;;
74926;SDS011;63488;48.092;-1.640;2024-02-15T02:06:57;5.82;;;3.15;;
74926;SDS011;63488;48.092;-1.640;2024-02-15T02:09:24;7.57;;;3.50;;
74926;SDS011;63488;48.092;-1.640;2024-02-15T02:11:49;6.53;;;3.50;;
74926;SDS011;63488;48.092;-1.640;2024-02-15T02:14:16;6.05;;;3.47;;
74926;SDS011;63488;48.092;-1.640;2024-02-15T02:16:41;4.05;;;3.00;;
74926;SDS011;63488;48.092;-1.640;2024-02-15T02:19:06;7.85;;;3.35;;
74926;SDS011;63488;48.092;-1.640;2024-02-15T02:21:34;8.05;;;3.88;;
74926;SDS011;63488;48.092;-1.640;2024-02-15T02:24:00;5.50;;;3.17;;
74926;SDS011;63488;48.092;-1.640;2024-02-15T02:26:27;7.53;;;3.40;;
74926;SDS011;63488;48.092;-1.640;2024-02-15T02:28:52;5.13;;;3.40;;
74926;SDS011;63488;48.092;-1.640;2024-02-15T02:31:21;5.30;;;3.60;;
74926;SDS011;63488;48.092;-1.640;2024-02-15T02:33:52;4.88;;;3.08;;
74926;SDS011;63488;48.092;-1.640;2024-02-15T02:36:21;4.80;;;3.33;;
74926;SDS011;63488;48.092;-1.640;2024-02-15T02:38:46;4.72;;;3.33;;
74926;SDS011;63488;48.092;-1.640;2024-02-15T02:41:15;5.43;;;3.25;;
74926;SDS011;63488;48.092;-1.640;2024-02-15T02:43:40;6.50;;;3.40;;
74926;SDS011;63488;48.092;-1.640;2024-02-15T02:46:06;8.52;;;3.53;;
74926;SDS011;63488;48.092;-1.640;2024-02-15T02:48:32;6.63;;;3.42;;
74926;SDS011;63488;48.092;-1.640;2024-02-15T02:50:57;6.30;;;3.42;;
74926;SDS011;63488;48.092;-1.640;2024-02-15T02:53:23;6.90;;;3.58;;
74926;SDS011;63488;48.092;-1.640;2024-02-15T02:55:48;7.78;;;3.70;;
74926;SDS011;63488;48.092;-1.640;2024-02-15T02:58:13;6.07;;;3.70;;
74926;SDS011;63488;48.092;-1.640;2024-02-15T03:00:38;6.20;;;3.60;;
74926;SDS011;63488;48.092;-1.640;2024-02-15T03:03:05;7.95;;;4.38;;
74926;SDS011;63488;48.092;-1.640;2024-02-15T03:05:30;4.70;;;3.67;;
74926;SDS011;63488;48.092;-1.640;2024-02-15T03:07:56;6.20;;;3.70;;
74926;SDS011;63488;48.092;-1.640;2024-02-15T03:10:21;7.35;;;3.95;;
74926;SDS011;63488;48.092;-1.640;2024-02-15T03:12:47;5.78;;;3.55;;
74926;SDS011;63488;48.092;-1.640;2024-02-15T03:15:12;7.13;;;3.80;;
74926;SDS011;63488;48.092;-1.640;2024-02-15T03:17:41;5.82;;;3.50;;
74926;SDS011;63488;48.092;-1.640;2024-02-15T03:20:07;6.97;;;4.00;;
74926;SDS011;63488;48.092;-1.640;2024-02-15T03:22:37;6.75;;;3.50;;
74926;SDS011;63488;48.092;-1.640;2024-02-15T03:25:03;4.65;;;3.60;;
74926;SDS011;63488;48.092;-1.640;2024-02-15T03:27:32;6.82;;;4.10;;
74926;SDS011;63488;48.092;-1.640;2024-02-15T03:29:58;5.28;;;3.58;;
74926;SDS011;63488;48.092;-1.640;2024-02-15T03:32:25;4.53;;;3.70;;
74926;SDS011;63488;48.092;-1.640;2024-02-15T03:34:50;6.70;;;3.88;;
74926;SDS011;63488;48.092;-1.640;2024-02-15T03:37:16;6.35;;;3.63;;
74926;SDS011;63488;48.092;-1.640;2024-02-15T03:39:43;7.18;;;3.92;;
74926;SDS011;63488;48.092;-1.640;2024-02-15T03:42:08;5.45;;;3.67;;
74926;SDS011;63488;48.092;-1.640;2024-02-15T03:44:33;6.00;;;4.30;;
74926;SDS011;63488;48.092;-1.640;2024-02-15T03:46:59;5.43;;;3.40;;
74926;SDS011;63488;48.092;-1.640;2024-02-15T03:49:24;6.55;;;3.80;;
74926;SDS011;63488;48.092;-1.640;2024-02-15T03:51:49;5.47;;;3.80;;
74926;SDS011;63488;48.092;-1.640;2024-02-15T03:54:15;5.80;;;4.10;;
74926;SDS011;63488;48.092;-1.640;2024-02-15T03:56:49;6.68;;;3.70;;
74926;SDS011;63488;48.092;-1.640;2024-02-15T03:59:18;4.28;;;3.33;;
74926;SDS011;63488;48.092;-1.640;2024-02-15T04:01:46;7.50;;;3.70;;
74926;SDS011;63488;48.092;-1.640;2024-02-15T04:04:12;6.45;;;3.55;;
74926;SDS011;63488;48.092;-1.640;2024-02-15T04:06:38;6.30;;;3.88;;
74926;SDS011;63488;48.092;-1.640;2024-02-15T04:09:06;5.35;;;3.90;;
74926;SDS011;63488;48.092;-1.640;2024-02-15T04:11:32;5.55;;;3.88;;
74926;SDS011;63488;48.092;-1.640;2024-02-15T04:13:58;5.63;;;3.95;;
74926;SDS011;63488;48.092;-1.640;2024-02-15T04:16:23;5.22;;;3.47;;
74926;SDS011;63488;48.092;-1.640;2024-02-15T04:18:50;4.80;;;3.45;;
74926;SDS011;63488;48.092;-1.640;2024-02-15T04:21:15;6.00;;;3.70;;
74926;SDS011;63488;48.092;-1.640;2024-02-15T04:23:44;6.53;;;3.47;;
74926;SDS011;63488;48.092;-1.640;2024-02-15T04:26:10;9.05;;;3.53;;
74926;SDS011;63488;48.092;-1.640;2024-02-15T04:28:39;7.22;;;3.55;;
74926;SDS011;63488;48.092;-1.640;2024-02-15T04:31:04;5.30;;;3.60;;
74926;SDS011;63488;48.092;-1.640;2024-02-15T04:33:33;4.13;;;3.58;;
74926;SDS011;63488;48.092;-1.640;2024-02-15T04:35:59;6.35;;;4.22;;
74926;SDS011;63488;48.092;-1.640;2024-02-15T04:38:27;7.60;;;3.53;;
74926;SDS011;63488;48.092;-1.640;2024-02-15T04:40:52;4.50;;;3.20;;
74926;SDS011;63488;48.092;-1.640;2024-02-15T04:43:19;4.82;;;3.38;;
74926;SDS011;63488;48.092;-1.640;2024-02-15T04:45:44;6.40;;;3.40;;
74926;SDS011;63488;48.092;-1.640;2024-02-15T04:48:10;5.00;;;3.42;;
74926;SDS011;63488;48.092;-1.640;2024-02-15T04:50:38;4.05;;;3.05;;
74926;SDS011;63488;48.092;-1.640;2024-02-15T04:53:08;5.13;;;3.55;;
74926;SDS011;63488;48.092;-1.640;2024-02-15T04:55:33;4.38;;;3.40;;
74926;SDS011;63488;48.092;-1.640;2024-02-15T04:58:00;4.50;;;3.42;;
74926;SDS011;63488;48.092;-1.640;2024-02-15T05:00:26;4.93;;;3.63;;
74926;SDS011;63488;48.092;-1.640;2024-02-15T05:02:51;5.55;;;3.60;;
74926;SDS011;63488;48.092;-1.640;2024-02-15T05:05:16;4.93;;;3.50;;
74926;SDS011;63488;48.092;-1.640;2024-02-15T05:07:42;5.93;;;3.75;;
74926;SDS011;63488;48.092;-1.640;2024-02-15T05:10:08;4.80;;;3.03;;
74926;SDS011;63488;48.092;-1.640;2024-02-15T05:12:34;5.05;;;3.78;;
74926;SDS011;63488;48.092;-1.640;2024-02-15T05:15:00;7.63;;;4.32;;
74926;SDS011;63488;48.092;-1.640;2024-02-15T05:17:25;5.70;;;3.58;;
74926;SDS011;63488;48.092;-1.640;2024-02-15T05:19:53;5.35;;;3.30;;
74926;SDS011;63488;48.092;-1.640;2024-02-15T05:22:19;5.82;;;3.85;;
74926;SDS011;63488;48.092;-1.640;2024-02-15T05:24:44;5.25;;;3.38;;
74926;SDS011;63488;48.092;-1.640;2024-02-15T05:27:10;5.65;;;3.20;;
74926;SDS011;63488;48.092;-1.640;2024-02-15T05:29:35;5.82;;;3.28;;
74926;SDS011;63488;48.092;-1.640;2024-02-15T05:32:02;7.18;;;3.55;;
74926;SDS011;63488;48.092;-1.640;2024-02-15T05:34:27;5.68;;;3.38;;
74926;SDS011;63488;48.092;-1.640;2024-02-15T05:36:54;4.82;;;3.00;;
74926;SDS011;63488;48.092;-1.640;2024-02-15T05:39:20;6.78;;;3.53;;
74926;SDS011;63488;48.092;-1.640;2024-02-15T05:41:47;5.15;;;3.40;;
74926;SDS011;63488;48.092;-1.640;2024-02-15T05:44:12;6.07;;;3.58;;
74926;SDS011;63488;48.092;-1.640;2024-02-15T05:46:39;5.07;;;3.20;;
74926;SDS011;63488;48.092;-1.640;2024-02-15T05:49:05;4.60;;;3.65;;
74926;SDS011;63488;48.092;-1.640;2024-02-15T05:51:31;3.72;;;3.03;;
74926;SDS011;63488;48.092;-1.640;2024-02-15T05:53:57;4.80;;;3.28;;
74926;SDS011;63488;48.092;-1.640;2024-02-15T05:56:25;5.55;;;3.38;;
74926;SDS011;63488;48.092;-1.640;2024-02-15T05:58:51;5.00;;;3.58;;
74926;SDS011;63488;48.092;-1.640;2024-02-15T06:01:16;6.20;;;3.30;;
74926;SDS011;63488;48.092;-1.640;2024-02-15T06:03:42;8.70;;;3.20;;
74926;SDS011;63488;48.092;-1.640;2024-02-15T06:06:09;7.03;;;3.20;;
74926;SDS011;63488;48.092;-1.640;2024-02-15T06:08:37;5.18;;;2.92;;
74926;SDS011;63488;48.092;-1.640;2024-02-15T06:11:04;5.10;;;3.15;;
74926;SDS011;63488;48.092;-1.640;2024-02-15T06:13:36;4.93;;;3.10;;
74926;SDS011;63488;48.092;-1.640;2024-02-15T06:16:03;4.90;;;3.00;;
74926;SDS011;63488;48.092;-1.640;2024-02-15T06:18:35;6.57;;;3.40;;
74926;SDS011;63488;48.092;-1.640;2024-02-15T06:21:03;6.53;;;3.38;;
74926;SDS011;63488;48.092;-1.640;2024-02-15T06:23:31;5.13;;;2.90;;
74926;SDS011;63488;48.092;-1.640;2024-02-15T06:25:59;5.85;;;3.17;;
74926;SDS011;63488;48.092;-1.640;2024-02-15T06:28:28;5.95;;;3.33;;
74926;SDS011;63488;48.092;-1.640;2024-02-15T06:31:13;5.28;;;2.97;;
74926;SDS011;63488;48.092;-1.640;2024-02-15T06:33:57;5.47;;;3.05;;
74926;SDS011;63488;48.092;-1.640;2024-02-15T06:36:48;4.43;;;2.83;;
74926;SDS011;63488;48.092;-1.640;2024-02-15T06:39:32;5.40;;;2.83;;
74926;SDS011;63488;48.092;-1.640;2024-02-15T06:42:06;4.30;;;2.80;;
74926;SDS011;63488;48.092;-1.640;2024-02-15T06:44:31;5.68;;;2.90;;
74926;SDS011;63488;48.092;-1.640;2024-02-15T06:46:57;5.03;;;3.05;;
74926;SDS011;63488;48.092;-1.640;2024-02-15T06:49:23;3.60;;;2.63;;
74926;SDS011;63488;48.092;-1.640;2024-02-15T06:51:49;4.10;;;2.70;;
74926;SDS011;63488;48.092;-1.640;2024-02-15T06:54:15;6.13;;;2.78;;
74926;SDS011;63488;48.092;-1.640;2024-02-15T06:56:42;3.10;;;2.70;;
74926;SDS011;63488;48.092;-1.640;2024-02-15T06:59:08;4.80;;;2.80;;
74926;SDS011;63488;48.092;-1.640;2024-02-15T07:01:35;6.30;;;2.83;;
74926;SDS011;63488;48.092;-1.640;2024-02-15T07:04:00;5.60;;;2.85;;
74926;SDS011;63488;48.092;-1.640;2024-02-15T07:06:28;6.07;;;2.92;;
74926;SDS011;63488;48.092;-1.640;2024-02-15T07:08:54;5.70;;;2.58;;
74926;SDS011;63488;48.092;-1.640;2024-02-15T07:11:21;5.38;;;2.45;;
74926;SDS011;63488;48.092;-1.640;2024-02-15T07:13:47;4.93;;;2.33;;
74926;SDS011;63488;48.092;-1.640;2024-02-15T07:16:13;6.93;;;2.80;;
74926;SDS011;63488;48.092;-1.640;2024-02-15T07:18:40;4.60;;;2.60;;
74926;SDS011;63488;48.092;-1.640;2024-02-15T07:21:06;4.78;;;2.92;;
74926;SDS011;63488;48.092;-1.640;2024-02-15T07:23:38;4.10;;;2.80;;
74926;SDS011;63488;48.092;-1.640;2024-02-15T07:26:04;4.85;;;3.28;;
74926;SDS011;63488;48.092;-1.640;2024-02-15T07:28:29;4.32;;;2.55;;
74926;SDS011;63488;48.092;-1.640;2024-02-15T07:30:58;4.45;;;2.50;;
74926;SDS011;63488;48.092;-1.640;2024-02-15T07:33:23;4.22;;;2.40;;
74926;SDS011;63488;48.092;-1.640;2024-02-15T07:35:48;6.43;;;2.70;;
74926;SDS011;63488;48.092;-1.640;2024-02-15T07:40:43;3.97;;;2.70;;
74926;SDS011;63488;48.092;-1.640;2024-02-15T07:43:09;3.67;;;2.22;;
74926;SDS011;63488;48.092;-1.640;2024-02-15T07:45:35;6.35;;;2.60;;
74926;SDS011;63488;48.092;-1.640;2024-02-15T07:48:02;3.75;;;2.38;;
74926;SDS011;63488;48.092;-1.640;2024-02-15T07:50:29;5.22;;;3.05;;
74926;SDS011;63488;48.092;-1.640;2024-02-15T07:52:55;4.47;;;2.42;;
74926;SDS011;63488;48.092;-1.640;2024-02-15T07:55:21;7.63;;;2.90;;
74926;SDS011;63488;48.092;-1.640;2024-02-15T07:57:46;6.05;;;2.65;;
74926;SDS011;63488;48.092;-1.640;2024-02-15T08:00:13;3.50;;;2.22;;
74926;SDS011;63488;48.092;-1.640;2024-02-15T08:02:41;3.50;;;2.17;;
74926;SDS011;63488;48.092;-1.640;2024-02-15T08:05:07;8.13;;;3.78;;
74926;SDS011;63488;48.092;-1.640;2024-02-15T08:07:36;3.40;;;2.53;;
74926;SDS011;63488;48.092;-1.640;2024-02-15T08:10:02;4.47;;;2.25;;
74926;SDS011;63488;48.092;-1.640;2024-02-15T08:12:28;8.48;;;5.72;;
74926;SDS011;63488;48.092;-1.640;2024-02-15T08:14:53;5.97;;;3.85;;
74926;SDS011;63488;48.092;-1.640;2024-02-15T08:17:19;6.53;;;2.67;;
74926;SDS011;63488;48.092;-1.640;2024-02-15T08:19:44;3.42;;;2.20;;
74926;SDS011;63488;48.092;-1.640;2024-02-15T08:22:10;5.35;;;2.38;;
74926;SDS011;63488;48.092;-1.640;2024-02-15T08:24:35;5.97;;;2.50;;
74926;SDS011;63488;48.092;-1.640;2024-02-15T08:27:01;3.92;;;2.17;;
74926;SDS011;63488;48.092;-1.640;2024-02-15T08:29:30;3.65;;;2.45;;
74926;SDS011;63488;48.092;-1.640;2024-02-15T08:31:56;4.45;;;2.30;;
74926;SDS011;63488;48.092;-1.640;2024-02-15T08:34:21;5.22;;;2.70;;
74926;SDS011;63488;48.092;-1.640;2024-02-15T08:36:46;4.50;;;2.38;;
74926;SDS011;63488;48.092;-1.640;2024-02-15T08:39:13;5.60;;;2.40;;
74926;SDS011;63488;48.092;-1.640;2024-02-15T08:41:41;3.65;;;2.38;;
74926;SDS011;63488;48.092;-1.640;2024-02-15T08:44:07;7.00;;;2.30;;
74926;SDS011;63488;48.092;-1.640;2024-02-15T08:46:36;4.85;;;2.60;;
74926;SDS011;63488;48.092;-1.640;2024-02-15T08:49:02;3.70;;;2.30;;
74926;SDS011;63488;48.092;-1.640;2024-02-15T08:51:29;4.45;;;2.20;;
74926;SDS011;63488;48.092;-1.640;2024-02-15T08:53:55;5.00;;;2.33;;
74926;SDS011;63488;48.092;-1.640;2024-02-15T08:56:21;3.88;;;2.00;;
74926;SDS011;63488;48.092;-1.640;2024-02-15T08:58:48;5.10;;;2.40;;
74926;SDS011;63488;48.092;-1.640;2024-02-15T09:01:13;3.97;;;2.20;;
74926;SDS011;63488;48.092;-1.640;2024-02-15T09:03:39;3.47;;;2.15;;
74926;SDS011;63488;48.092;-1.640;2024-02-15T09:06:04;5.75;;;2.08;;
74926;SDS011;63488;48.092;-1.640;2024-02-15T09:08:30;4.20;;;2.10;;
74926;SDS011;63488;48.092;-1.640;2024-02-15T09:10:55;5.93;;;2.45;;
74926;SDS011;63488;48.092;-1.640;2024-02-15T09:13:23;3.05;;;2.10;;
74926;SDS011;63488;48.092;-1.640;2024-02-15T09:15:48;6.50;;;2.17;;
74926;SDS011;63488;48.092;-1.640;2024-02-15T09:18:15;3.63;;;2.10;;
74926;SDS011;63488;48.092;-1.640;2024-02-15T09:20:42;5.47;;;2.38;;
74926;SDS011;63488;48.092;-1.640;2024-02-15T09:23:10;4.13;;;2.38;;
74926;SDS011;63488;48.092;-1.640;2024-02-15T09:25:40;3.88;;;2.35;;
74926;SDS011;63488;48.092;-1.640;2024-02-15T09:28:10;4.97;;;2.50;;
74926;SDS011;63488;48.092;-1.640;2024-02-15T09:30:36;6.25;;;2.85;;
74926;SDS011;63488;48.092;-1.640;2024-02-15T09:33:01;4.03;;;2.50;;
74926;SDS011;63488;48.092;-1.640;2024-02-15T09:35:30;3.50;;;2.30;;
74926;SDS011;63488;48.092;-1.640;2024-02-15T09:37:55;4.03;;;2.63;;
74926;SDS011;63488;48.092;-1.640;2024-02-15T09:40:42;3.45;;;2.53;;
74926;SDS011;63488;48.092;-1.640;2024-02-15T09:43:08;5.25;;;2.70;;
74926;SDS011;63488;48.092;-1.640;2024-02-15T09:45:34;5.30;;;2.92;;
74926;SDS011;63488;48.092;-1.640;2024-02-15T09:48:01;4.35;;;2.55;;
74926;SDS011;63488;48.092;-1.640;2024-02-15T09:50:30;5.38;;;2.97;;
74926;SDS011;63488;48.092;-1.640;2024-02-15T09:52:58;3.97;;;2.72;;
74926;SDS011;63488;48.092;-1.640;2024-02-15T09:55:24;4.70;;;2.95;;
74926;SDS011;63488;48.092;-1.640;2024-02-15T09:57:50;3.97;;;3.05;;
74926;SDS011;63488;48.092;-1.640;2024-02-15T10:00:15;6.45;;;2.58;;
74926;SDS011;63488;48.092;-1.640;2024-02-15T10:02:42;5.35;;;2.50;;
74926;SDS011;63488;48.092;-1.640;2024-02-15T10:05:09;6.18;;;2.40;;
74926;SDS011;63488;48.092;-1.640;2024-02-15T10:07:40;4.47;;;2.20;;
74926;SDS011;63488;48.092;-1.640;2024-02-15T10:12:45;4.50;;;1.92;;
74926;SDS011;63488;48.092;-1.640;2024-02-15T10:15:26;3.28;;;1.80;;
74926;SDS011;63488;48.092;-1.640;2024-02-15T10:17:55;4.53;;;1.90;;
74926;SDS011;63488;48.092;-1.640;2024-02-15T10:20:21;4.25;;;1.95;;
74926;SDS011;63488;48.092;-1.640;2024-02-15T10:23:12;4.57;;;2.38;;
74926;SDS011;63488;48.092;-1.640;2024-02-15T10:25:39;3.90;;;1.80;;
74926;SDS011;63488;48.092;-1.640;2024-02-15T10:28:06;2.50;;;1.83;;
74926;SDS011;63488;48.092;-1.640;2024-02-15T10:30:33;2.90;;;1.95;;
74926;SDS011;63488;48.092;-1.640;2024-02-15T10:32:58;8.80;;;1.95;;
74926;SDS011;63488;48.092;-1.640;2024-02-15T10:35:24;3.83;;;1.67;;
74926;SDS011;63488;48.092;-1.640;2024-02-15T10:37:49;3.92;;;1.58;;
74926;SDS011;63488;48.092;-1.640;2024-02-15T10:40:18;5.35;;;1.58;;
74926;SDS011;63488;48.092;-1.640;2024-02-15T10:42:44;3.38;;;1.73;;
74926;SDS011;63488;48.092;-1.640;2024-02-15T10:45:11;4.80;;;1.55;;
74926;SDS011;63488;48.092;-1.640;2024-02-15T10:47:37;3.70;;;1.70;;
74926;SDS011;63488;48.092;-1.640;2024-02-15T10:50:04;4.05;;;1.83;;
74926;SDS011;63488;48.092;-1.640;2024-02-15T10:52:31;2.85;;;1.50;;
74926;SDS011;63488;48.092;-1.640;2024-02-15T10:55:01;3.88;;;1.83;;
74926;SDS011;63488;48.092;-1.640;2024-02-15T10:57:28;6.10;;;1.70;;
74926;SDS011;63488;48.092;-1.640;2024-02-15T10:59:56;2.78;;;1.60;;
74926;SDS011;63488;48.092;-1.640;2024-02-15T11:02:29;3.90;;;1.67;;
74926;SDS011;63488;48.092;-1.640;2024-02-15T11:04:55;6.35;;;1.75;;
74926;SDS011;63488;48.092;-1.640;2024-02-15T11:07:26;6.55;;;1.95;;
74926;SDS011;63488;48.092;-1.640;2024-02-15T11:09:54;2.17;;;1.30;;
74926;SDS011;63488;48.092;-1.640;2024-02-15T11:12:21;3.50;;;1.73;;
74926;SDS011;63488;48.092;-1.640;2024-02-15T11:14:48;4.18;;;1.70;;
74926;SDS011;63488;48.092;-1.640;2024-02-15T11:17:45;3.38;;;1.60;;
74926;SDS011;63488;48.092;-1.640;2024-02-15T11:19:59;6.28;;;1.52;;
74926;SDS011;63488;48.092;-1.640;2024-02-15T11:22:25;2.63;;;1.45;;
74926;SDS011;63488;48.092;-1.640;2024-02-15T11:24:51;4.50;;;1.67;;
74926;SDS011;63488;48.092;-1.640;2024-02-15T11:27:27;4.32;;;2.08;;
74926;SDS011;63488;48.092;-1.640;2024-02-15T11:29:56;4.05;;;2.20;;
74926;SDS011;63488;48.092;-1.640;2024-02-15T11:35:11;4.65;;;1.55;;
74926;SDS011;63488;48.092;-1.640;2024-02-15T11:42:52;3.28;;;1.70;;
74926;SDS011;63488;48.092;-1.640;2024-02-15T11:45:18;5.22;;;1.85;;
74926;SDS011;63488;48.092;-1.640;2024-02-15T11:47:46;4.85;;;1.90;;
74926;SDS011;63488;48.092;-1.640;2024-02-15T11:52:49;4.70;;;1.90;;
74926;SDS011;63488;48.092;-1.640;2024-02-15T11:55:18;4.40;;;1.70;;
74926;SDS011;63488;48.092;-1.640;2024-02-15T11:58:17;4.38;;;1.88;;
74926;SDS011;63488;48.092;-1.640;2024-02-15T12:00:36;5.72;;;1.90;;
74926;SDS011;63488;48.092;-1.640;2024-02-15T12:03:20;5.80;;;1.80;;
74926;SDS011;63488;48.092;-1.640;2024-02-15T12:06:24;3.90;;;1.88;;
74926;SDS011;63488;48.092;-1.640;2024-02-15T12:09:08;4.25;;;1.83;;
74926;SDS011;63488;48.092;-1.640;2024-02-15T12:11:58;4.28;;;2.40;;
74926;SDS011;63488;48.092;-1.640;2024-02-15T12:17:26;5.20;;;2.00;;
74926;SDS011;63488;48.092;-1.640;2024-02-15T12:20:10;5.25;;;2.33;;
74926;SDS011;63488;48.092;-1.640;2024-02-15T12:22:39;3.80;;;2.20;;
74926;SDS011;63488;48.092;-1.640;2024-02-15T12:25:05;5.38;;;2.05;;
74926;SDS011;63488;48.092;-1.640;2024-02-15T12:27:37;4.43;;;1.80;;
74926;SDS011;63488;48.092;-1.640;2024-02-15T12:30:02;5.78;;;2.10;;
74926;SDS011;63488;48.092;-1.640;2024-02-15T12:32:31;3.63;;;1.70;;
74926;SDS011;63488;48.092;-1.640;2024-02-15T12:35:09;5.80;;;1.80;;
74926;SDS011;63488;48.092;-1.640;2024-02-15T12:37:37;5.20;;;1.98;;
74926;SDS011;63488;48.092;-1.640;2024-02-15T12:40:13;4.60;;;1.80;;
74926;SDS011;63488;48.092;-1.640;2024-02-15T12:42:41;4.25;;;2.00;;
74926;SDS011;63488;48.092;-1.640;2024-02-15T12:45:06;4.43;;;1.67;;
74926;SDS011;63488;48.092;-1.640;2024-02-15T12:47:33;7.00;;;2.17;;
74926;SDS011;63488;48.092;-1.640;2024-02-15T12:49:58;4.57;;;1.73;;
74926;SDS011;63488;48.092;-1.640;2024-02-15T12:52:33;4.38;;;1.70;;
74926;SDS011;63488;48.092;-1.640;2024-02-15T12:55:12;4.93;;;1.90;;
74926;SDS011;63488;48.092;-1.640;2024-02-15T12:57:38;2.65;;;1.52;;
74926;SDS011;63488;48.092;-1.640;2024-02-15T13:00:07;4.80;;;1.70;;
74926;SDS011;63488;48.092;-1.640;2024-02-15T13:02:37;3.15;;;1.75;;
74926;SDS011;63488;48.092;-1.640;2024-02-15T13:05:03;3.95;;;1.80;;
74926;SDS011;63488;48.092;-1.640;2024-02-15T13:07:28;4.60;;;1.90;;
74926;SDS011;63488;48.092;-1.640;2024-02-15T13:09:54;5.63;;;1.92;;
74926;SDS011;63488;48.092;-1.640;2024-02-15T13:12:20;4.28;;;1.40;;
74926;SDS011;63488;48.092;-1.640;2024-02-15T13:14:45;3.22;;;1.67;;
74926;SDS011;63488;48.092;-1.640;2024-02-15T13:17:11;6.63;;;1.85;;
74926;SDS011;63488;48.092;-1.640;2024-02-15T13:19:36;3.88;;;2.03;;
74926;SDS011;63488;48.092;-1.640;2024-02-15T13:22:02;5.38;;;1.85;;
74926;SDS011;63488;48.092;-1.640;2024-02-15T13:24:29;3.50;;;1.70;;
74926;SDS011;63488;48.092;-1.640;2024-02-15T13:26:55;5.45;;;1.90;;
74926;SDS011;63488;48.092;-1.640;2024-02-15T13:29:21;5.82;;;1.80;;
74926;SDS011;63488;48.092;-1.640;2024-02-15T13:31:48;5.13;;;2.20;;
74926;SDS011;63488;48.092;-1.640;2024-02-15T13:34:15;5.97;;;2.00;;
74926;SDS011;63488;48.092;-1.640;2024-02-15T13:36:41;3.47;;;1.58;;
74926;SDS011;63488;48.092;-1.640;2024-02-15T13:39:07;4.95;;;1.88;;
74926;SDS011;63488;48.092;-1.640;2024-02-15T13:41:34;5.38;;;2.00;;
74926;SDS011;63488;48.092;-1.640;2024-02-15T13:43:59;4.30;;;1.98;;
74926;SDS011;63488;48.092;-1.640;2024-02-15T13:46:25;6.03;;;2.50;;
74926;SDS011;63488;48.092;-1.640;2024-02-15T13:48:50;6.28;;;2.30;;
74926;SDS011;63488;48.092;-1.640;2024-02-15T13:51:15;5.20;;;2.15;;
74926;SDS011;63488;48.092;-1.640;2024-02-15T13:53:41;4.82;;;2.03;;
74926;SDS011;63488;48.092;-1.640;2024-02-15T13:56:08;5.97;;;1.83;;
74926;SDS011;63488;48.092;-1.640;2024-02-15T13:58:34;4.32;;;2.17;;
74926;SDS011;63488;48.092;-1.640;2024-02-15T14:00:59;9.20;;;2.47;;
74926;SDS011;63488;48.092;-1.640;2024-02-15T14:03:28;6.53;;;2.38;;
74926;SDS011;63488;48.092;-1.640;2024-02-15T14:05:54;5.82;;;2.42;;
74926;SDS011;63488;48.092;-1.640;2024-02-15T14:08:19;6.70;;;2.20;;
74926;SDS011;63488;48.092;-1.640;2024-02-15T14:10:45;4.70;;;2.40;;
74926;SDS011;63488;48.092;-1.640;2024-02-15T14:13:10;4.25;;;2.50;;
74926;SDS011;63488;48.092;-1.640;2024-02-15T14:15:38;4.82;;;1.95;;
74926;SDS011;63488;48.092;-1.640;2024-02-15T14:18:07;3.08;;;1.80;;
74926;SDS011;63488;48.092;-1.640;2024-02-15T14:20:35;3.33;;;1.65;;
74926;SDS011;63488;48.092;-1.640;2024-02-15T14:23:01;4.15;;;1.60;;
74926;SDS011;63488;48.092;-1.640;2024-02-15T14:25:31;4.20;;;1.48;;
74926;SDS011;63488;48.092;-1.640;2024-02-15T14:27:56;5.20;;;1.52;;
74926;SDS011;63488;48.092;-1.640;2024-02-15T14:30:23;2.63;;;1.42;;
74926;SDS011;63488;48.092;-1.640;2024-02-15T14:33:07;4.88;;;2.00;;
74926;SDS011;63488;48.092;-1.640;2024-02-15T14:35:37;4.05;;;1.80;;
74926;SDS011;63488;48.092;-1.640;2024-02-15T14:38:07;3.95;;;1.55;;
74926;SDS011;63488;48.092;-1.640;2024-02-15T14:40:40;7.38;;;1.83;;
74926;SDS011;63488;48.092;-1.640;2024-02-15T14:43:06;4.72;;;1.75;;
74926;SDS011;63488;48.092;-1.640;2024-02-15T14:45:32;3.95;;;1.90;;
74926;SDS011;63488;48.092;-1.640;2024-02-15T14:47:58;7.05;;;1.70;;
74926;SDS011;63488;48.092;-1.640;2024-02-15T14:50:23;4.35;;;1.73;;
74926;SDS011;63488;48.092;-1.640;2024-02-15T14:52:49;3.75;;;1.70;;